VKO weather

Vnukovo International Airport
Moscow, Moscow Oblast, Russia

Public forecast

Using degrees Celsius for public forecast. Weather courtesy of forecast.io.

Current aviation weather report (METAR) for Vnukovo International Airport

Retrieved 2019/10/17 04:30 UTC (0 seconds ago):

UUWW 170430Z 19003MPS CAVOK 08/06 Q1016 R24/190060 NOSIG

Aviation forecast (TAF) for Vnukovo International Airport

Retrieved 2019-10-17 03:21 UTC (51 minutes ago):

TAF UUWW 170159Z 1703/1803 19005MPS 9999 SCT015 TX14/1712Z TN05/1703Z TEMPO 1703/1707 FEW004 BKN011 TEMPO 1711/1718 -SHRA SCT020CB BECMG 1719/1721 25003G08MPS BKN012